Time;durP1;ratioP1;P1;durP2;ratioP2;P2;SDS_P1;SDS_P2;PMS_P1;PMS_P2;Temp;Humidity;BMP_temperature;BMP_pressure;BME280_temperature;BME280_humidity;BME280_pressure;Samples;Min_cycle;Max_cycle;Signal;HPM_P1;HPM_P2
2022/10/31 00:00:16;;;;;;;11.70;8.43;;;16.00;99.90;;;;;;2096142;28;20064;-71
2022/10/31 00:01:24;;;;;;;15.30;8.93;;;16.00;99.90;;;;;;2095260;28;20035;-71
2022/10/31 00:02:25;;;;;;;11.68;9.05;;;16.00;99.90;;;;;;2093708;28;20047;-71
2022/10/31 00:03:26;;;;;;;11.50;8.30;;;16.00;99.90;;;;;;2087326;28;20017;-71
2022/10/31 00:04:26;;;;;;;17.02;9.00;;;16.00;99.90;;;;;;2096101;28;20055;-71
2022/10/31 00:05:27;;;;;;;14.10;9.23;;;16.00;99.90;;;;;;2096456;28;20069;-71
2022/10/31 00:06:27;;;;;;;12.40;8.82;;;16.00;99.90;;;;;;2094014;28;20422;-71
2022/10/31 00:07:28;;;;;;;12.02;8.48;;;16.00;99.90;;;;;;2095771;28;20083;-71
2022/10/31 00:08:29;;;;;;;13.82;8.00;;;16.00;99.90;;;;;;2095357;28;20484;-71
2022/10/31 00:09:29;;;;;;;17.52;9.43;;;16.00;99.90;;;;;;2096438;28;20020;-71
2022/10/31 00:10:30;;;;;;;16.70;8.48;;;16.10;99.90;;;;;;2095419;28;20024;-71
2022/10/31 00:11:30;;;;;;;18.60;9.15;;;16.10;99.90;;;;;;2097722;28;20028;-71
2022/10/31 00:12:31;;;;;;;15.50;8.88;;;16.10;99.90;;;;;;2096059;28;20451;-71
2022/10/31 00:13:31;;;;;;;15.15;9.65;;;16.10;99.90;;;;;;2094406;28;20025;-71
2022/10/31 00:14:32;;;;;;;14.75;8.98;;;16.10;99.90;;;;;;2095564;28;20028;-71
2022/10/31 00:15:34;;;;;;;14.02;8.75;;;16.10;99.90;;;;;;2096296;28;20028;-71
2022/10/31 00:16:34;;;;;;;13.98;9.15;;;16.10;99.90;;;;;;2096822;28;20031;-71
2022/10/31 00:17:36;;;;;;;16.98;9.13;;;16.10;99.90;;;;;;2094898;28;20111;-71
2022/10/31 00:18:36;;;;;;;13.02;8.90;;;16.10;99.90;;;;;;2097135;28;20093;-71
2022/10/31 00:19:37;;;;;;;15.15;8.68;;;16.10;99.90;;;;;;2096102;28;20078;-71
2022/10/31 00:20:38;;;;;;;14.90;8.82;;;16.10;99.90;;;;;;2096972;28;20028;-71
2022/10/31 00:21:38;;;;;;;15.20;9.57;;;16.10;99.90;;;;;;2095012;28;20040;-71
2022/10/31 00:22:39;;;;;;;14.13;9.18;;;16.10;99.90;;;;;;2095026;28;20043;-71
2022/10/31 00:23:39;;;;;;;16.38;9.15;;;16.10;99.90;;;;;;2094061;28;20032;-71
2022/10/31 00:24:40;;;;;;;15.32;9.18;;;16.20;99.90;;;;;;2094953;28;20079;-71
2022/10/31 00:25:40;;;;;;;15.68;10.43;;;16.20;99.90;;;;;;2094476;28;20100;-71
2022/10/31 00:26:41;;;;;;;15.57;9.93;;;16.20;99.90;;;;;;2096326;28;20032;-71
2022/10/31 00:27:41;;;;;;;16.60;9.45;;;16.20;99.90;;;;;;2094847;28;20388;-71
2022/10/31 00:28:42;;;;;;;15.38;9.35;;;16.20;99.90;;;;;;2095999;28;20123;-71
2022/10/31 00:29:43;;;;;;;15.77;9.95;;;16.20;99.90;;;;;;2094037;28;20039;-71
2022/10/31 00:30:43;;;;;;;18.02;10.35;;;16.20;99.90;;;;;;2094662;28;20081;-71
2022/10/31 00:31:44;;;;;;;14.98;9.63;;;16.20;99.90;;;;;;2094772;28;20113;-71
2022/10/31 00:32:44;;;;;;;16.15;9.50;;;16.20;99.90;;;;;;2094550;28;20103;-71
2022/10/31 00:33:45;;;;;;;15.63;8.80;;;16.20;99.90;;;;;;2094884;28;20025;-71
2022/10/31 00:34:45;;;;;;;15.27;9.30;;;16.20;99.90;;;;;;2095152;28;20075;-71
2022/10/31 00:35:50;;;;;;;17.77;10.00;;;16.20;99.90;;;;;;2096057;28;20043;-71
2022/10/31 00:36:50;;;;;;;16.50;9.18;;;16.20;99.90;;;;;;2095006;28;20515;-71
2022/10/31 00:37:52;;;;;;;15.75;9.07;;;16.20;99.90;;;;;;2096065;28;20488;-71
2022/10/31 00:38:53;;;;;;;13.30;9.00;;;16.30;99.90;;;;;;2094961;28;20427;-71
2022/10/31 00:39:53;;;;;;;13.95;9.40;;;16.30;99.90;;;;;;2096039;28;20218;-71
2022/10/31 00:40:54;;;;;;;14.80;9.35;;;16.30;99.90;;;;;;2096393;28;20029;-71
2022/10/31 00:41:54;;;;;;;16.15;10.13;;;16.30;99.90;;;;;;2095763;28;20028;-71
2022/10/31 00:42:55;;;;;;;13.88;9.95;;;16.30;99.90;;;;;;2094588;28;20032;-71
2022/10/31 00:43:55;;;;;;;12.52;8.25;;;16.30;99.90;;;;;;2094653;28;20036;-71
2022/10/31 00:44:56;;;;;;;18.95;8.90;;;16.30;99.90;;;;;;2095813;28;20033;-71
2022/10/31 00:45:56;;;;;;;15.23;10.48;;;16.30;99.90;;;;;;2096523;28;20029;-71
2022/10/31 00:46:57;;;;;;;17.13;9.40;;;16.30;99.90;;;;;;2095081;28;20029;-71
2022/10/31 00:47:57;;;;;;;15.30;9.15;;;16.30;99.90;;;;;;2096463;28;20042;-71
2022/10/31 00:48:58;;;;;;;14.40;9.40;;;16.30;99.90;;;;;;2093209;28;20029;-71
2022/10/31 00:49:58;;;;;;;14.07;9.23;;;16.30;99.90;;;;;;2095297;28;20025;-71
2022/10/31 00:50:59;;;;;;;9.38;6.78;;;16.30;99.90;;;;;;2096775;28;20081;-71
2022/10/31 00:51:59;;;;;;;16.30;8.70;;;16.30;99.90;;;;;;2094717;28;20016;-71
2022/10/31 00:53:00;;;;;;;15.07;8.82;;;16.30;99.90;;;;;;2095076;28;20029;-71
2022/10/31 00:54:00;;;;;;;14.02;9.50;;;16.30;99.90;;;;;;2095272;28;20547;-71
2022/10/31 00:55:01;;;;;;;15.10;9.82;;;16.30;99.90;;;;;;2095963;28;20028;-71
2022/10/31 00:56:02;;;;;;;14.90;10.32;;;16.30;99.90;;;;;;2094031;28;20553;-71
2022/10/31 00:57:03;;;;;;;13.90;8.88;;;16.30;99.90;;;;;;2095773;28;20496;-71
2022/10/31 00:58:03;;;;;;;13.18;9.30;;;16.30;99.90;;;;;;2095053;28;20522;-71
2022/10/31 00:59:04;;;;;;;14.50;8.98;;;16.30;99.90;;;;;;2094881;28;20048;-71
2022/10/31 01:00:05;;;;;;;12.90;9.23;;;16.30;99.90;;;;;;2095840;28;20028;-71
2022/10/31 01:01:06;;;;;;;13.95;9.27;;;16.30;99.90;;;;;;2096110;28;20410;-71
2022/10/31 01:02:06;;;;;;;14.70;7.53;;;16.30;99.90;;;;;;2094785;28;20032;-71
2022/10/31 01:03:07;;;;;;;10.82;8.32;;;16.30;99.90;;;;;;2095968;28;20035;-71
2022/10/31 01:04:08;;;;;;;13.75;9.75;;;16.30;99.90;;;;;;2094636;28;20427;-71
2022/10/31 01:05:08;;;;;;;16.85;9.85;;;16.30;99.90;;;;;;2095282;28;20492;-71
2022/10/31 01:06:12;;;;;;;13.73;9.80;;;16.30;99.90;;;;;;2096651;28;20044;-72
2022/10/31 01:07:13;;;;;;;12.40;9.32;;;16.30;99.90;;;;;;2095843;28;20683;-71
2022/10/31 01:08:14;;;;;;;16.30;8.77;;;16.30;99.90;;;;;;2095809;28;20970;-72
2022/10/31 01:09:14;;;;;;;15.30;9.57;;;16.20;99.90;;;;;;2097769;28;20111;-71
2022/10/31 01:10:15;;;;;;;13.73;9.55;;;16.20;99.90;;;;;;2095285;28;20024;-71
2022/10/31 01:11:19;;;;;;;16.15;9.18;;;16.30;99.90;;;;;;2096418;28;20074;-71
2022/10/31 01:12:20;;;;;;;16.38;9.82;;;16.30;99.90;;;;;;2095843;28;20133;-71
2022/10/31 01:13:20;;;;;;;14.82;10.05;;;16.20;99.90;;;;;;2092785;28;20102;-71
2022/10/31 01:14:21;;;;;;;15.02;9.13;;;16.30;99.90;;;;;;2095794;28;20107;-71
2022/10/31 01:15:22;;;;;;;16.38;9.73;;;16.20;99.90;;;;;;2094515;28;20029;-71
2022/10/31 01:16:24;;;;;;;16.08;10.38;;;16.30;99.90;;;;;;2094292;28;20115;-71
2022/10/31 01:17:25;;;;;;;15.10;10.88;;;16.30;99.90;;;;;;2094897;28;20437;-71
2022/10/31 01:18:26;;;;;;;11.45;8.90;;;16.30;99.90;;;;;;2094855;28;20075;-71
2022/10/31 01:19:27;;;;;;;15.15;9.48;;;16.30;99.90;;;;;;2095212;28;20029;-71
2022/10/31 01:20:28;;;;;;;16.55;10.10;;;16.30;99.90;;;;;;2096854;28;20482;-71
2022/10/31 01:21:29;;;;;;;18.08;10.70;;;16.30;99.90;;;;;;2095006;28;20052;-71
2022/10/31 01:22:29;;;;;;;18.25;11.57;;;16.30;99.90;;;;;;2092283;28;20030;-71
2022/10/31 01:23:30;;;;;;;20.80;11.27;;;16.30;99.90;;;;;;2094516;28;20036;-71
2022/10/31 01:24:31;;;;;;;17.35;11.18;;;16.30;99.90;;;;;;2096076;28;20020;-71
2022/10/31 01:25:32;;;;;;;14.80;10.27;;;16.30;99.90;;;;;;2095247;28;20063;-71
2022/10/31 01:26:33;;;;;;;16.50;10.93;;;16.30;99.90;;;;;;2095376;28;20055;-71
2022/10/31 01:27:34;;;;;;;17.38;10.10;;;16.30;99.90;;;;;;2093512;28;20137;-71
2022/10/31 01:28:37;;;;;;;15.15;10.05;;;16.20;99.90;;;;;;2094679;28;20028;-71
2022/10/31 01:29:37;;;;;;;15.43;10.13;;;16.30;99.90;;;;;;2095371;28;20076;-71
2022/10/31 01:30:38;;;;;;;16.58;9.93;;;16.30;99.90;;;;;;2095195;28;20020;-71
2022/10/31 01:31:39;;;;;;;17.90;9.93;;;16.30;99.90;;;;;;2094615;28;20048;-71
2022/10/31 01:32:39;;;;;;;14.18;10.30;;;16.20;99.90;;;;;;2095977;28;21151;-71
2022/10/31 01:33:40;;;;;;;13.20;8.95;;;16.30;99.90;;;;;;2095558;28;20024;-71
2022/10/31 01:34:40;;;;;;;16.88;10.48;;;16.20;99.90;;;;;;2094414;28;20031;-71
2022/10/31 01:35:41;;;;;;;17.35;10.82;;;16.20;99.90;;;;;;2095233;28;20923;-71
2022/10/31 01:36:42;;;;;;;17.60;8.90;;;16.20;99.90;;;;;;2095484;28;20047;-71
2022/10/31 01:37:43;;;;;;;16.60;9.95;;;16.20;99.90;;;;;;2095843;28;20024;-71
2022/10/31 01:38:44;;;;;;;17.10;10.27;;;16.20;99.90;;;;;;2094513;28;20056;-71
2022/10/31 01:39:45;;;;;;;14.88;10.60;;;16.30;99.90;;;;;;2094959;28;20032;-71
2022/10/31 01:40:45;;;;;;;15.85;10.70;;;16.20;99.90;;;;;;2094790;28;20605;-71
2022/10/31 01:41:49;;;;;;;18.35;11.93;;;16.20;99.90;;;;;;2094650;28;20098;-71
2022/10/31 01:42:49;;;;;;;15.52;11.38;;;16.30;99.90;;;;;;2095443;28;20611;-71
2022/10/31 01:43:56;;;;;;;16.05;11.75;;;16.20;99.90;;;;;;2094562;28;20086;-71
2022/10/31 01:45:00;;;;;;;20.45;11.90;;;16.20;99.90;;;;;;2093845;28;20032;-71
2022/10/31 01:46:01;;;;;;;14.63;10.13;;;16.20;99.90;;;;;;2094820;28;20035;-71
2022/10/31 01:47:07;;;;;;;15.60;10.35;;;16.20;99.90;;;;;;2083431;28;20763;-71
2022/10/31 01:48:15;;;;;;;17.70;10.23;;;16.20;99.90;;;;;;2091190;28;20457;-71
2022/10/31 01:49:46;;;;;;;14.60;10.32;;;16.20;99.90;;;;;;2094617;28;20029;-71
2022/10/31 01:50:50;;;;;;;20.15;10.93;;;16.20;99.90;;;;;;2094712;28;20031;-71
2022/10/31 01:51:56;;;;;;;19.33;11.15;;;16.20;99.90;;;;;;2094006;28;20033;-71
2022/10/31 01:52:58;;;;;;;16.60;10.57;;;16.20;99.90;;;;;;2095908;28;20025;-71
2022/10/31 01:54:05;;;;;;;13.98;10.90;;;16.20;99.90;;;;;;2094235;28;20078;-71
2022/10/31 01:55:11;;;;;;;17.55;11.63;;;16.20;99.90;;;;;;2094979;28;20024;-71
2022/10/31 01:56:15;;;;;;;20.13;11.85;;;16.20;99.90;;;;;;2102050;28;20027;-71
2022/10/31 01:57:19;;;;;;;19.27;12.25;;;16.20;99.90;;;;;;2099255;28;20028;-71
2022/10/31 01:58:24;;;;;;;17.63;11.63;;;16.20;99.90;;;;;;2094255;28;20029;-71
2022/10/31 01:59:29;;;;;;;17.63;11.00;;;16.20;99.90;;;;;;2094340;28;20107;-71
2022/10/31 02:00:29;;;;;;;20.98;10.95;;;16.20;99.90;;;;;;2094924;28;20025;-72
2022/10/31 02:01:30;;;;;;;16.92;11.35;;;16.20;99.90;;;;;;2093339;28;20658;-72
2022/10/31 02:02:31;;;;;;;17.52;11.38;;;16.20;99.90;;;;;;2091508;28;20093;-72
2022/10/31 02:03:32;;;;;;;21.15;12.07;;;16.20;99.90;;;;;;2093419;28;20048;-72
2022/10/31 02:04:34;;;;;;;20.80;12.05;;;16.20;99.90;;;;;;2093349;28;20104;-72
2022/10/31 02:05:35;;;;;;;19.30;12.55;;;16.20;99.90;;;;;;2094230;28;20024;-72
2022/10/31 02:06:43;;;;;;;18.58;12.20;;;16.20;99.90;;;;;;2095062;28;20028;-72
2022/10/31 02:07:53;;;;;;;16.25;11.88;;;16.20;99.90;;;;;;2093241;28;20027;-72
2022/10/31 02:08:54;;;;;;;;;;;16.20;99.90;;;;;;2094353;28;20028;-73
2022/10/31 02:09:56;;;;;;;14.60;10.63;;;16.10;99.90;;;;;;2092573;28;19991;-73
2022/10/31 02:10:59;;;;;;;20.33;12.32;;;16.10;99.90;;;;;;2094997;28;20024;-73
2022/10/31 02:12:00;;;;;;;17.00;11.52;;;16.20;99.90;;;;;;2094037;28;20025;-73
2022/10/31 02:13:05;;;;;;;14.07;11.10;;;16.20;99.90;;;;;;2093468;28;20074;-72
2022/10/31 02:14:05;;;;;;;16.80;11.55;;;16.20;99.90;;;;;;2095917;28;20025;-72
2022/10/31 02:15:07;;;;;;;18.00;11.25;;;16.20;99.90;;;;;;2093587;28;20119;-72
2022/10/31 02:16:09;;;;;;;22.20;10.60;;;16.20;99.90;;;;;;2094906;28;20028;-72
2022/10/31 02:17:10;;;;;;;18.83;11.30;;;16.20;99.90;;;;;;2093614;28;20039;-72
2022/10/31 02:18:11;;;;;;;21.13;11.43;;;16.20;99.90;;;;;;2095945;28;20032;-72
2022/10/31 02:19:17;;;;;;;14.00;11.00;;;16.20;99.90;;;;;;2095588;28;20024;-72
2022/10/31 02:20:22;;;;;;;18.00;11.95;;;16.20;99.90;;;;;;2093442;28;20035;-72
2022/10/31 02:21:26;;;;;;;20.33;11.43;;;16.20;99.90;;;;;;2093572;28;20036;-72
2022/10/31 02:22:35;;;;;;;20.80;12.60;;;16.20;99.90;;;;;;2096588;28;20029;-72
2022/10/31 02:24:05;;;;;;;16.60;11.30;;;16.20;99.90;;;;;;2095053;28;20024;-72
2022/10/31 02:25:47;;;;;;;17.15;10.95;;;16.20;99.90;;;;;;2094809;28;21127;-72
2022/10/31 02:26:59;;;;;;;16.30;11.10;;;16.20;99.90;;;;;;2093945;28;20094;-72
2022/10/31 02:28:17;;;;;;;15.07;10.82;;;16.20;99.90;;;;;;2095888;28;20025;-73
2022/10/31 02:30:00;;;;;;;17.20;10.55;;;16.20;99.90;;;;;;2094371;28;20863;-73
2022/10/31 02:31:22;;;;;;;16.48;10.70;;;16.20;99.90;;;;;;2091401;28;20044;-73
2022/10/31 02:32:49;;;;;;;19.48;11.18;;;16.10;99.90;;;;;;2095555;28;20966;-73
2022/10/31 02:34:02;;;;;;;15.57;10.25;;;16.10;99.90;;;;;;2095212;28;20028;-72
2022/10/31 02:35:44;;;;;;;19.10;11.18;;;16.10;99.90;;;;;;2090549;28;20033;-72
2022/10/31 02:36:56;;;;;;;13.38;9.82;;;16.10;99.90;;;;;;2093862;28;20077;-72
2022/10/31 02:38:25;;;;;;;11.65;9.40;;;16.10;99.90;;;;;;2091286;28;20274;-72
2022/10/31 02:39:53;;;;;;;15.73;9.30;;;16.00;99.90;;;;;;2091806;28;20668;-72
2022/10/31 02:41:20;;;;;;;13.77;8.65;;;16.00;99.90;;;;;;2095483;28;20032;-73
2022/10/31 02:42:31;;;;;;;14.00;9.02;;;16.00;99.90;;;;;;2070231;28;20076;-73
2022/10/31 02:43:36;;;;;;;17.85;10.57;;;16.00;99.90;;;;;;2093402;28;20075;-73
2022/10/31 02:45:02;;;;;;;17.17;9.85;;;16.00;99.90;;;;;;2094129;28;20559;-73
2022/10/31 02:46:13;;;;;;;18.30;10.00;;;16.00;99.90;;;;;;2091729;28;20028;-73
2022/10/31 02:47:14;;;;;;;;;;;16.00;99.90;;;;;;2090694;28;20053;-73
2022/10/31 02:48:20;;;;;;;16.60;10.75;;;15.90;99.90;;;;;;2095289;28;19965;-73
2022/10/31 02:49:42;;;;;;;20.90;11.65;;;16.00;99.90;;;;;;2093773;28;20055;-72
2022/10/31 02:50:52;;;;;;;14.20;8.85;;;16.00;99.90;;;;;;2093391;28;20029;-72
2022/10/31 02:51:52;;;;;;;10.63;7.40;;;15.90;99.90;;;;;;2091224;28;20036;-72
2022/10/31 02:52:53;;;;;;;11.40;9.02;;;15.90;99.90;;;;;;2091802;28;20036;-72
2022/10/31 02:53:54;;;;;;;17.52;10.52;;;16.00;99.90;;;;;;2096123;28;20020;-72
2022/10/31 02:54:54;;;;;;;16.33;11.38;;;16.00;99.90;;;;;;2093058;28;20060;-72
2022/10/31 02:55:59;;;;;;;18.50;10.90;;;16.00;99.90;;;;;;2094147;28;20029;-72
2022/10/31 02:57:06;;;;;;;15.95;11.02;;;16.00;99.90;;;;;;2094611;28;20039;-72
2022/10/31 02:58:12;;;;;;;14.18;10.57;;;16.00;99.90;;;;;;2096872;28;20055;-72
2022/10/31 02:59:13;;;;;;;12.30;9.70;;;16.00;99.90;;;;;;2091603;28;20125;-72
2022/10/31 03:00:13;;;;;;;16.17;10.98;;;16.00;99.90;;;;;;2092960;28;20039;-72
2022/10/31 03:01:23;;;;;;;20.75;11.98;;;16.00;99.90;;;;;;2097009;28;20040;-72
2022/10/31 03:02:47;;;;;;;17.90;10.88;;;16.00;99.90;;;;;;2095113;28;20036;-72
2022/10/31 03:04:11;;;;;;;15.52;11.07;;;15.90;99.90;;;;;;2096000;28;20043;-72
2022/10/31 03:05:41;;;;;;;22.33;11.20;;;15.90;99.90;;;;;;2084280;28;20157;-72
2022/10/31 03:06:54;;;;;;;17.83;10.10;;;15.90;99.90;;;;;;2097127;28;20033;-72
2022/10/31 03:08:18;;;;;;;13.88;9.70;;;15.90;99.90;;;;;;2095177;28;20434;-72
2022/10/31 03:09:29;;;;;;;15.40;10.57;;;15.90;99.90;;;;;;2094930;28;20067;-72
2022/10/31 03:10:40;;;;;;;17.50;9.85;;;15.90;99.90;;;;;;2095966;28;20039;-72
2022/10/31 03:11:57;;;;;;;14.90;9.30;;;15.90;99.90;;;;;;2096003;28;20135;-72
2022/10/31 03:13:29;;;;;;;14.75;9.88;;;15.90;99.90;;;;;;2094466;28;20395;-72
2022/10/31 03:14:56;;;;;;;17.30;8.43;;;15.90;99.90;;;;;;2093289;28;20476;-72
2022/10/31 03:16:03;;;;;;;15.07;10.32;;;15.90;99.90;;;;;;2086145;28;20036;-72
2022/10/31 03:17:07;;;;;;;15.27;10.63;;;15.90;99.90;;;;;;2096255;28;20082;-72
2022/10/31 03:18:13;;;;;;;18.98;10.90;;;15.90;99.90;;;;;;2096741;28;20625;-72
2022/10/31 03:19:30;;;;;;;14.70;11.23;;;16.00;99.90;;;;;;2094248;28;20040;-72
2022/10/31 03:20:41;;;;;;;14.52;10.35;;;16.00;99.90;;;;;;2096789;28;20856;-72
2022/10/31 03:21:45;;;;;;;13.00;10.23;;;16.00;99.90;;;;;;2097645;28;20387;-72
2022/10/31 03:22:47;;;;;;;16.48;10.82;;;16.00;99.90;;;;;;2097927;28;20467;-72
2022/10/31 03:23:50;;;;;;;14.73;8.77;;;16.00;99.90;;;;;;2096430;28;20041;-72
2022/10/31 03:24:52;;;;;;;18.17;9.60;;;16.00;99.90;;;;;;2095216;28;20043;-72
2022/10/31 03:25:54;;;;;;;15.18;10.20;;;16.00;99.90;;;;;;2096599;28;20062;-72
2022/10/31 03:26:58;;;;;;;12.05;8.38;;;16.00;99.90;;;;;;2091870;28;20483;-72
2022/10/31 03:28:01;;;;;;;18.35;10.43;;;16.00;99.90;;;;;;2095809;28;20115;-72
2022/10/31 03:29:10;;;;;;;17.65;12.10;;;16.00;99.90;;;;;;2095751;28;20031;-72
2022/10/31 03:30:12;;;;;;;14.50;10.48;;;16.00;99.90;;;;;;2095893;28;20043;-72
2022/10/31 03:31:18;;;;;;;13.38;10.48;;;16.00;99.90;;;;;;2096673;28;20488;-72
2022/10/31 03:32:27;;;;;;;16.30;10.85;;;16.00;99.90;;;;;;2091483;28;20456;-72
2022/10/31 03:33:32;;;;;;;14.55;10.85;;;16.00;99.90;;;;;;2097523;28;20033;-72
2022/10/31 03:34:37;;;;;;;17.52;10.20;;;16.00;99.90;;;;;;2095079;28;20040;-73
2022/10/31 03:35:41;;;;;;;11.18;9.02;;;16.00;99.90;;;;;;2097315;28;20028;-73
2022/10/31 03:36:44;;;;;;;10.73;9.00;;;16.00;99.90;;;;;;2096492;28;20574;-73
2022/10/31 03:37:46;;;;;;;13.38;9.65;;;16.00;99.90;;;;;;2096331;28;20078;-73
2022/10/31 03:38:47;;;;;;;16.15;10.38;;;16.00;99.90;;;;;;2096394;28;20067;-73
2022/10/31 03:39:49;;;;;;;12.75;9.15;;;16.00;99.90;;;;;;2096985;28;20078;-73
2022/10/31 03:40:53;;;;;;;14.68;10.13;;;16.00;99.90;;;;;;2096987;28;20363;-73
2022/10/31 03:42:03;;;;;;;19.25;10.02;;;16.00;99.90;;;;;;2096068;28;20021;-73
2022/10/31 03:43:09;;;;;;;15.98;11.02;;;16.00;99.90;;;;;;2096627;28;20111;-73
2022/10/31 03:44:17;;;;;;;14.05;10.15;;;16.00;99.90;;;;;;2093974;28;20369;-73
2022/10/31 03:45:26;;;;;;;17.73;11.38;;;16.00;99.90;;;;;;2096104;28;20112;-73
2022/10/31 03:46:28;;;;;;;16.40;11.13;;;15.90;99.90;;;;;;2094920;28;20399;-73
2022/10/31 03:47:29;;;;;;;17.33;9.88;;;15.90;99.90;;;;;;2093587;28;20029;-73
2022/10/31 03:48:29;;;;;;;10.75;7.70;;;15.90;99.90;;;;;;2094582;28;20385;-73
2022/10/31 03:49:31;;;;;;;12.05;8.15;;;15.90;99.90;;;;;;2094734;28;20058;-72
2022/10/31 03:50:52;;;;;;;13.15;9.15;;;15.90;99.90;;;;;;2097405;28;20024;-72
2022/10/31 03:52:17;;;;;;;14.73;9.82;;;15.90;99.90;;;;;;2095795;28;20111;-72
2022/10/31 03:53:26;;;;;;;13.82;9.60;;;15.90;99.90;;;;;;2096557;28;20024;-72
2022/10/31 03:54:34;;;;;;;12.65;7.70;;;15.80;99.90;;;;;;2094044;28;20025;-72
2022/10/31 03:55:49;;;;;;;16.48;9.20;;;15.80;99.90;;;;;;2093841;28;20021;-72
2022/10/31 03:57:06;;;;;;;12.52;8.88;;;15.80;99.90;;;;;;2092329;28;20117;-73
2022/10/31 03:58:11;;;;;;;13.80;9.75;;;15.80;99.90;;;;;;2095785;28;20527;-72
2022/10/31 03:59:32;;;;;;;14.60;8.90;;;15.80;99.90;;;;;;2093809;28;20130;-73
2022/10/31 04:00:34;;;;;;;12.73;8.68;;;15.70;99.90;;;;;;2094980;28;20032;-73
2022/10/31 04:01:39;;;;;;;12.48;8.98;;;15.70;99.90;;;;;;2097405;28;20469;-72
2022/10/31 04:02:53;;;;;;;14.32;8.73;;;15.70;99.90;;;;;;2097083;28;20020;-72
2022/10/31 04:03:56;;;;;;;9.85;6.30;;;15.70;99.90;;;;;;2095348;28;20025;-72
2022/10/31 04:04:57;;;;;;;12.30;8.43;;;15.70;99.90;;;;;;2094215;28;20071;-72
2022/10/31 04:06:02;;;;;;;16.52;10.60;;;15.70;99.90;;;;;;2096324;28;20786;-72
2022/10/31 04:07:05;;;;;;;13.52;9.02;;;15.70;99.90;;;;;;2093074;28;20037;-72
2022/10/31 04:08:12;;;;;;;14.30;9.60;;;15.60;99.90;;;;;;2096800;28;20066;-72
2022/10/31 04:09:14;;;;;;;20.02;10.70;;;15.60;99.90;;;;;;2096165;28;20029;-72
2022/10/31 04:10:16;;;;;;;17.45;8.82;;;15.60;99.90;;;;;;2093613;28;20028;-72
2022/10/31 04:11:19;;;;;;;14.75;9.02;;;15.60;99.90;;;;;;2095417;28;20025;-72
2022/10/31 04:12:22;;;;;;;14.70;9.10;;;15.60;99.90;;;;;;2095274;28;20100;-72
2022/10/31 04:13:31;;;;;;;11.15;8.55;;;15.50;99.90;;;;;;2095089;28;20070;-72
2022/10/31 04:14:34;;;;;;;10.40;8.13;;;15.50;99.90;;;;;;2095715;28;20033;-72
2022/10/31 04:15:36;;;;;;;12.98;8.38;;;15.50;99.90;;;;;;2096540;28;20031;-72
2022/10/31 04:16:41;;;;;;;13.50;8.13;;;15.50;99.90;;;;;;2093922;28;20020;-72
2022/10/31 04:17:45;;;;;;;13.73;8.95;;;15.50;99.90;;;;;;2095162;28;20070;-72
2022/10/31 04:18:45;;;;;;;12.40;8.60;;;15.40;99.90;;;;;;2096963;28;20025;-72
2022/10/31 04:19:46;;;;;;;12.40;9.38;;;15.40;99.90;;;;;;2092841;28;20522;-72
2022/10/31 04:20:49;;;;;;;14.52;9.63;;;15.40;99.90;;;;;;2087779;28;20868;-72
2022/10/31 04:21:50;;;;;;;17.23;8.75;;;15.40;99.90;;;;;;2094163;28;20081;-72
2022/10/31 04:22:50;;;;;;;13.35;10.15;;;15.30;99.90;;;;;;2096756;28;20021;-72
2022/10/31 04:23:51;;;;;;;13.63;9.85;;;15.30;99.90;;;;;;2096066;28;20033;-72
2022/10/31 04:24:51;;;;;;;14.48;9.45;;;15.30;99.90;;;;;;2093983;28;20035;-72
2022/10/31 04:25:52;;;;;;;15.02;10.38;;;15.30;99.90;;;;;;2095614;28;20027;-72
2022/10/31 04:26:52;;;;;;;16.35;10.48;;;15.30;99.90;;;;;;2096423;28;20036;-72
2022/10/31 04:27:53;;;;;;;14.15;9.40;;;15.30;99.90;;;;;;2096453;28;20036;-72
2022/10/31 04:28:54;;;;;;;17.30;9.88;;;15.30;99.90;;;;;;2095970;28;20488;-72
2022/10/31 04:29:54;;;;;;;13.30;9.18;;;15.30;99.90;;;;;;2095470;28;20028;-72
2022/10/31 04:30:55;;;;;;;16.55;10.43;;;15.20;99.90;;;;;;2096205;28;20024;-72
2022/10/31 04:31:55;;;;;;;16.10;8.73;;;15.20;99.90;;;;;;2097231;28;20028;-72
2022/10/31 04:32:56;;;;;;;14.25;9.40;;;15.20;99.90;;;;;;2094286;28;20032;-72
2022/10/31 04:33:56;;;;;;;14.35;8.05;;;15.20;99.90;;;;;;2096499;28;20086;-72
2022/10/31 04:34:57;;;;;;;15.30;9.88;;;15.20;99.90;;;;;;2094600;28;20532;-72
2022/10/31 04:35:57;;;;;;;14.05;9.13;;;15.10;99.90;;;;;;2095804;28;20029;-72
2022/10/31 04:36:58;;;;;;;12.85;8.52;;;15.10;99.90;;;;;;2096535;28;20529;-72
2022/10/31 04:37:58;;;;;;;12.07;8.82;;;15.10;99.90;;;;;;2093843;28;20531;-72
2022/10/31 04:38:59;;;;;;;14.95;9.50;;;15.10;99.90;;;;;;2095767;28;20029;-72
2022/10/31 04:39:59;;;;;;;12.45;8.70;;;15.10;99.90;;;;;;2094693;28;20067;-72
2022/10/31 04:41:00;;;;;;;14.52;9.00;;;15.10;99.90;;;;;;2097324;28;20028;-72
2022/10/31 04:42:00;;;;;;;14.00;9.10;;;15.00;99.90;;;;;;2095176;28;20535;-72
2022/10/31 04:43:01;;;;;;;15.90;9.90;;;15.00;99.90;;;;;;2095124;28;20059;-72
2022/10/31 04:44:02;;;;;;;16.05;10.35;;;15.00;99.90;;;;;;2096276;28;20077;-72
2022/10/31 04:45:02;;;;;;;10.93;9.32;;;15.00;99.90;;;;;;2096201;28;20029;-72
2022/10/31 04:46:04;;;;;;;16.23;9.05;;;15.00;99.90;;;;;;2095134;28;20036;-72
2022/10/31 04:47:04;;;;;;;12.15;8.10;;;15.00;99.90;;;;;;2094782;28;20093;-72
2022/10/31 04:48:05;;;;;;;12.75;8.43;;;15.00;99.90;;;;;;2094793;28;20025;-72
2022/10/31 04:49:06;;;;;;;13.80;8.75;;;14.90;99.90;;;;;;2095049;28;20016;-72
2022/10/31 04:50:07;;;;;;;13.85;8.65;;;14.90;99.90;;;;;;2094908;28;20062;-72
2022/10/31 04:51:07;;;;;;;16.15;9.23;;;14.90;99.90;;;;;;2095419;28;20025;-72
2022/10/31 04:52:08;;;;;;;13.27;8.48;;;14.90;99.90;;;;;;2095620;28;20055;-72
2022/10/31 04:53:08;;;;;;;14.60;9.10;;;14.90;99.90;;;;;;2093355;28;20031;-72
2022/10/31 04:54:09;;;;;;;12.85;9.88;;;14.90;99.90;;;;;;2094632;28;20024;-72
2022/10/31 04:55:11;;;;;;;14.75;8.52;;;14.90;99.90;;;;;;2096565;28;20024;-72
2022/10/31 04:56:11;;;;;;;14.50;9.07;;;14.90;99.90;;;;;;2095896;28;20052;-72
2022/10/31 04:57:12;;;;;;;10.35;8.60;;;14.80;99.90;;;;;;2095094;28;20028;-72
2022/10/31 04:58:12;;;;;;;15.02;9.68;;;14.80;99.90;;;;;;2094881;28;20025;-72
2022/10/31 04:59:13;;;;;;;12.73;8.73;;;14.80;99.90;;;;;;2092754;28;20029;-72
2022/10/31 05:00:15;;;;;;;13.77;8.57;;;14.80;99.90;;;;;;2095590;28;20614;-72
2022/10/31 05:01:16;;;;;;;12.98;8.43;;;14.80;99.90;;;;;;2098172;28;20028;-72
2022/10/31 05:02:16;;;;;;;18.85;9.63;;;14.80;99.90;;;;;;2094629;28;20111;-72
2022/10/31 05:03:17;;;;;;;15.93;8.80;;;14.80;99.90;;;;;;2096071;28;20028;-72
2022/10/31 05:04:17;;;;;;;11.00;8.57;;;14.70;99.90;;;;;;2095092;28;20036;-72
2022/10/31 05:05:21;;;;;;;12.50;9.05;;;14.80;99.90;;;;;;2095602;28;20085;-72
2022/10/31 05:06:21;;;;;;;14.73;9.52;;;14.70;99.90;;;;;;2095952;28;20432;-72
2022/10/31 05:07:22;;;;;;;19.98;10.35;;;14.70;99.90;;;;;;2094010;28;20028;-72
2022/10/31 05:08:22;;;;;;;13.23;8.25;;;14.70;99.90;;;;;;2095134;28;20045;-72
2022/10/31 05:09:23;;;;;;;12.88;8.88;;;14.70;99.90;;;;;;2095976;28;20023;-72
2022/10/31 05:10:26;;;;;;;12.55;7.40;;;14.70;99.90;;;;;;2095596;28;20016;-72
2022/10/31 05:11:27;;;;;;;13.60;7.93;;;14.70;99.90;;;;;;2094765;28;20411;-72
2022/10/31 05:12:27;;;;;;;13.52;9.02;;;14.70;99.90;;;;;;2094882;28;20033;-72
2022/10/31 05:13:28;;;;;;;14.60;9.30;;;14.70;99.90;;;;;;2095448;28;20047;-73
2022/10/31 05:14:29;;;;;;;15.75;8.50;;;14.60;99.90;;;;;;2095340;28;20032;-73
2022/10/31 05:15:30;;;;;;;11.68;9.00;;;14.60;99.90;;;;;;2095228;28;20067;-72
2022/10/31 05:16:30;;;;;;;15.40;9.75;;;14.60;99.90;;;;;;2093157;28;20759;-72
2022/10/31 05:17:31;;;;;;;15.00;8.35;;;14.60;99.90;;;;;;2094340;28;20072;-72
2022/10/31 05:18:32;;;;;;;10.57;8.43;;;14.60;99.90;;;;;;2096853;28;20380;-72
2022/10/31 05:19:32;;;;;;;13.98;8.77;;;14.60;99.90;;;;;;2093451;28;20040;-72
2022/10/31 05:20:33;;;;;;;14.90;9.55;;;14.60;99.90;;;;;;2096151;28;20031;-72
2022/10/31 05:21:34;;;;;;;11.90;8.68;;;14.60;99.90;;;;;;2095507;28;20039;-72
2022/10/31 05:22:34;;;;;;;14.38;9.75;;;14.60;99.90;;;;;;2093661;28;20028;-73
2022/10/31 05:23:35;;;;;;;10.73;8.85;;;14.50;99.90;;;;;;2094464;28;20118;-72
2022/10/31 05:24:36;;;;;;;12.45;8.77;;;14.50;99.90;;;;;;2096503;28;20982;-72
2022/10/31 05:25:36;;;;;;;13.15;8.85;;;14.50;99.90;;;;;;2095099;28;20032;-72
2022/10/31 05:26:37;;;;;;;18.25;10.18;;;14.50;99.90;;;;;;2094980;28;20016;-72
2022/10/31 05:27:41;;;;;;;14.95;9.88;;;14.50;99.90;;;;;;2093884;28;20091;-72
2022/10/31 05:28:42;;;;;;;18.08;9.75;;;14.50;99.90;;;;;;2095604;28;20055;-72